Time;durP1;ratioP1;P1;durP2;ratioP2;P2;SDS_P1;SDS_P2;PMS_P1;PMS_P2;Temp;Humidity;BMP_temperature;BMP_pressure;BME280_temperature;BME280_humidity;BME280_pressure;Samples;Min_cycle;Max_cycle;Signal;HPM_P1;HPM_P2
2022/04/28 00:01:02;;;;;;;8.73;8.23;;;6.40;99.90;;;;;;485318;245;27533;-71
2022/04/28 00:03:03;;;;;;;9.73;9.23;;;6.40;99.90;;;;;;485331;245;27516;-70
2022/04/28 00:05:04;;;;;;;11.27;10.57;;;6.40;99.90;;;;;;485308;245;27976;-70
2022/04/28 00:07:05;;;;;;;9.30;8.70;;;6.30;99.90;;;;;;485350;244;28013;-72
2022/04/28 00:09:07;;;;;;;8.80;8.20;;;6.30;99.90;;;;;;485247;245;27509;-71
2022/04/28 00:11:11;;;;;;;9.15;8.65;;;6.30;99.90;;;;;;485352;245;27531;-71
2022/04/28 00:13:09;;;;;;;9.30;8.80;;;6.30;99.90;;;;;;485132;245;27502;-70
2022/04/28 00:15:10;;;;;;;8.82;8.32;;;6.30;99.90;;;;;;485301;245;27524;-69
2022/04/28 00:17:12;;;;;;;7.80;7.30;;;6.20;99.90;;;;;;485352;245;27529;-73
2022/04/28 00:19:13;;;;;;;8.98;8.40;;;6.20;99.90;;;;;;485348;245;28098;-71
2022/04/28 00:21:14;;;;;;;8.20;7.80;;;6.20;99.90;;;;;;485323;245;27996;-72
2022/04/28 00:23:15;;;;;;;9.10;8.70;;;6.20;99.90;;;;;;485335;245;27482;-70
2022/04/28 00:25:17;;;;;;;9.48;8.98;;;6.20;99.90;;;;;;485217;245;27569;-71
2022/04/28 00:27:18;;;;;;;8.63;8.13;;;6.10;99.90;;;;;;485298;245;27531;-72
2022/04/28 00:29:20;;;;;;;10.00;9.40;;;6.00;99.90;;;;;;485332;245;27512;-68
2022/04/28 00:31:20;;;;;;;9.15;8.65;;;6.00;99.90;;;;;;485265;244;27513;-69
2022/04/28 00:33:22;;;;;;;10.18;9.57;;;5.90;99.90;;;;;;485300;245;28844;-71
2022/04/28 00:35:23;;;;;;;9.77;9.27;;;5.90;99.90;;;;;;485291;245;27927;-70
2022/04/28 00:37:24;;;;;;;8.18;7.68;;;5.80;99.90;;;;;;485306;245;27522;-74
2022/04/28 00:39:25;;;;;;;8.30;7.80;;;5.90;99.90;;;;;;485330;245;27494;-70
2022/04/28 00:41:27;;;;;;;8.88;8.38;;;5.90;99.90;;;;;;485318;245;27534;-69
2022/04/28 00:43:28;;;;;;;8.05;7.55;;;5.90;99.90;;;;;;485286;245;27504;-69
2022/04/28 00:45:29;;;;;;;7.80;7.40;;;5.90;99.90;;;;;;485284;245;27501;-68
2022/04/28 00:52:09;;;;;;;10.40;9.90;;;6.00;99.90;;;;;;485351;245;27937;-69
2022/04/28 00:54:11;;;;;;;9.70;9.20;;;6.00;99.90;;;;;;485338;245;28079;-71
2022/04/28 00:56:12;;;;;;;9.25;8.75;;;5.90;99.90;;;;;;485323;245;27608;-68
2022/04/28 00:58:13;;;;;;;10.52;9.93;;;5.90;99.90;;;;;;485289;245;27537;-68
2022/04/28 01:00:15;;;;;;;9.43;8.93;;;5.90;99.90;;;;;;485281;245;27489;-68
2022/04/28 01:02:19;;;;;;;10.10;9.40;;;5.80;99.90;;;;;;485252;245;27475;-69
2022/04/28 01:04:17;;;;;;;9.02;8.52;;;5.80;99.90;;;;;;485181;245;27518;-71
2022/04/28 01:06:18;;;;;;;8.43;7.95;;;5.70;99.90;;;;;;485325;245;28073;-68
2022/04/28 01:08:20;;;;;;;8.48;7.97;;;5.60;99.90;;;;;;485329;245;27993;-70
2022/04/28 01:10:21;;;;;;;8.95;8.30;;;5.50;99.90;;;;;;485281;245;27518;-68
2022/04/28 01:12:24;;;;;;;9.27;8.57;;;5.60;99.90;;;;;;485333;244;27401;-68
2022/04/28 01:14:23;;;;;;;8.93;8.48;;;5.70;99.90;;;;;;485242;244;27516;-74
2022/04/28 01:16:25;;;;;;;9.63;9.13;;;5.70;99.90;;;;;;485344;245;27489;-69
2022/04/28 01:18:26;;;;;;;9.65;9.10;;;5.60;99.90;;;;;;485347;245;27587;-69
2022/04/28 01:20:27;;;;;;;9.15;8.65;;;5.50;99.90;;;;;;485351;245;27490;-69
2022/04/28 01:22:28;;;;;;;10.00;9.48;;;5.40;99.90;;;;;;485363;245;27986;-69
2022/04/28 01:24:31;;;;;;;10.95;10.27;;;5.40;99.90;;;;;;485344;245;28123;-69
2022/04/28 01:26:31;;;;;;;10.70;10.13;;;5.50;99.90;;;;;;485264;245;27636;-69
2022/04/28 01:28:32;;;;;;;10.00;9.38;;;5.40;99.90;;;;;;485338;244;27513;-69
2022/04/28 01:30:36;;;;;;;9.10;8.60;;;5.40;99.90;;;;;;485306;245;27524;-70
2022/04/28 01:32:35;;;;;;;9.45;8.95;;;5.40;99.90;;;;;;485195;245;27405;-69
2022/04/28 01:34:36;;;;;;;10.05;9.35;;;5.40;99.90;;;;;;485341;245;27517;-71
2022/04/28 01:36:37;;;;;;;9.57;9.07;;;5.50;99.90;;;;;;485371;245;27858;-69
2022/04/28 01:38:38;;;;;;;10.60;10.00;;;5.40;99.90;;;;;;485362;245;27987;-69
2022/04/28 01:40:40;;;;;;;9.90;9.40;;;5.40;99.90;;;;;;485371;244;27531;-69
2022/04/28 01:42:41;;;;;;;10.02;9.43;;;5.40;99.90;;;;;;485352;244;27487;-69
2022/04/28 01:44:42;;;;;;;7.90;7.50;;;5.30;99.90;;;;;;485332;245;27442;-69
2022/04/28 01:46:44;;;;;;;9.60;9.10;;;5.30;99.90;;;;;;485270;245;27557;-69
2022/04/28 01:48:45;;;;;;;8.98;8.38;;;5.40;99.90;;;;;;485301;245;27454;-69
2022/04/28 01:54:57;;;;;;;10.00;9.40;;;5.30;99.90;;;;;;485311;245;28441;-73
2022/04/28 01:55:07;;;;;;;8.52;7.97;;;5.20;99.90;;;;;;485312;244;27513;-69
2022/04/28 01:57:08;;;;;;;8.95;8.55;;;5.30;99.90;;;;;;485300;245;27509;-73
2022/04/28 01:59:09;;;;;;;9.57;9.07;;;5.30;99.90;;;;;;485323;245;27518;-69
2022/04/28 02:01:11;;;;;;;8.48;8.00;;;5.20;99.90;;;;;;485322;245;27536;-69
2022/04/28 02:03:12;;;;;;;11.63;10.93;;;5.20;99.90;;;;;;485302;245;27481;-68
2022/04/28 02:05:13;;;;;;;9.43;8.93;;;5.20;99.90;;;;;;485297;244;27913;-69
2022/04/28 02:07:15;;;;;;;11.48;10.90;;;5.30;99.90;;;;;;485308;245;28117;-71
2022/04/28 02:09:16;;;;;;;9.75;9.15;;;5.20;99.90;;;;;;485291;242;27569;-69
2022/04/28 02:11:17;;;;;;;9.57;9.07;;;5.20;99.90;;;;;;485281;245;27616;-69
2022/04/28 02:13:18;;;;;;;10.35;9.75;;;5.10;99.90;;;;;;485286;245;27490;-69
2022/04/28 02:15:20;;;;;;;10.40;9.90;;;5.10;99.90;;;;;;485276;245;27604;-69
2022/04/28 02:17:21;;;;;;;10.48;9.88;;;5.10;99.90;;;;;;485310;245;27530;-70
2022/04/28 02:19:22;;;;;;;10.32;9.73;;;5.10;99.90;;;;;;485342;245;27410;-69
2022/04/28 02:21:23;;;;;;;10.40;9.80;;;5.10;99.90;;;;;;485264;244;27533;-69
2022/04/28 02:23:25;;;;;;;11.32;10.73;;;5.10;99.90;;;;;;485015;245;27543;-69
2022/04/28 02:25:26;;;;;;;8.07;7.65;;;5.10;99.90;;;;;;485308;244;27589;-68
2022/04/28 02:27:27;;;;;;;9.45;8.95;;;5.10;99.90;;;;;;485295;245;27616;-71
2022/04/28 02:29:28;;;;;;;9.75;9.25;;;5.10;99.90;;;;;;485330;245;27491;-69
2022/04/28 02:31:30;;;;;;;9.40;8.90;;;5.00;99.90;;;;;;485300;245;28090;-69
2022/04/28 02:33:31;;;;;;;9.55;8.98;;;5.00;99.90;;;;;;485305;241;29136;-69
2022/04/28 02:35:32;;;;;;;8.77;8.35;;;5.00;99.90;;;;;;485326;245;27441;-69
2022/04/28 02:37:33;;;;;;;9.02;8.60;;;5.00;99.90;;;;;;485308;245;27653;-71
2022/04/28 02:39:35;;;;;;;8.38;7.87;;;4.90;99.90;;;;;;485289;244;27470;-69
2022/04/28 02:41:36;;;;;;;8.60;8.10;;;4.90;99.90;;;;;;485304;245;27513;-70
2022/04/28 02:43:37;;;;;;;10.50;9.90;;;4.80;99.90;;;;;;485271;245;27528;-72
2022/04/28 02:45:39;;;;;;;10.73;9.80;;;4.80;99.90;;;;;;485296;245;27502;-69
2022/04/28 02:47:40;;;;;;;9.30;8.80;;;4.80;99.90;;;;;;485318;245;28117;-71
2022/04/28 02:49:41;;;;;;;10.02;9.50;;;4.80;99.90;;;;;;485299;244;28021;-69
2022/04/28 02:51:42;;;;;;;9.55;8.95;;;4.80;99.90;;;;;;485313;245;27989;-69
2022/04/28 02:53:44;;;;;;;8.82;8.32;;;4.80;99.90;;;;;;485291;245;27553;-69
2022/04/28 02:55:45;;;;;;;9.70;9.10;;;4.80;99.90;;;;;;485288;245;27486;-69
2022/04/28 02:57:46;;;;;;;9.38;8.80;;;4.80;99.90;;;;;;485239;245;27608;-72
2022/04/28 02:59:47;;;;;;;9.77;9.13;;;4.80;99.90;;;;;;485291;245;27502;-69
2022/04/28 03:01:49;;;;;;;9.55;9.05;;;4.80;99.90;;;;;;485314;245;27615;-69
2022/04/28 03:03:50;;;;;;;10.50;9.90;;;4.80;99.90;;;;;;485302;245;27538;-69
2022/04/28 03:12:47;;;;;;;10.85;10.25;;;4.80;99.90;;;;;;485190;242;27521;-70
2022/04/28 03:14:48;;;;;;;10.60;10.00;;;4.80;99.90;;;;;;485222;244;27956;-69
2022/04/28 03:16:49;;;;;;;11.85;11.25;;;4.80;99.90;;;;;;485300;244;28110;-69
2022/04/28 03:18:50;;;;;;;11.02;10.43;;;4.70;99.90;;;;;;485324;244;27579;-70
2022/04/28 03:20:52;;;;;;;10.95;10.35;;;4.70;99.90;;;;;;485292;244;27565;-70
2022/04/28 03:22:53;;;;;;;12.43;11.75;;;4.60;99.90;;;;;;485305;244;27612;-70
2022/04/28 03:24:54;;;;;;;11.60;11.00;;;4.70;99.90;;;;;;485300;244;27593;-69
2022/04/28 03:26:55;;;;;;;11.52;10.93;;;4.70;99.90;;;;;;485277;244;27545;-70
2022/04/28 03:28:57;;;;;;;13.23;12.52;;;4.60;99.90;;;;;;485281;244;28083;-72
2022/04/28 03:30:58;;;;;;;13.00;12.30;;;4.60;99.90;;;;;;485291;244;28042;-70
2022/04/28 03:32:59;;;;;;;13.23;12.43;;;4.60;99.90;;;;;;485271;244;27528;-70
2022/04/28 03:35:00;;;;;;;12.60;11.90;;;4.60;99.90;;;;;;485302;244;27490;-69
2022/04/28 03:37:02;;;;;;;12.02;11.43;;;4.60;99.90;;;;;;485289;244;27592;-69
2022/04/28 03:39:04;;;;;;;10.70;10.13;;;4.60;99.90;;;;;;485207;244;27668;-72
2022/04/28 03:41:04;;;;;;;10.52;9.90;;;4.60;99.90;;;;;;485217;242;27489;-69
2022/04/28 03:43:05;;;;;;;10.93;10.32;;;4.60;99.90;;;;;;485248;245;28027;-70
2022/04/28 03:45:07;;;;;;;11.80;11.00;;;4.50;99.90;;;;;;485146;244;27509;-69
2022/04/28 03:47:08;;;;;;;11.00;10.40;;;4.50;99.90;;;;;;485253;244;27615;-70
2022/04/28 03:49:09;;;;;;;11.77;11.07;;;4.50;99.90;;;;;;485275;241;27636;-74
2022/04/28 03:51:10;;;;;;;11.57;10.88;;;4.50;99.90;;;;;;485279;244;27516;-69
2022/04/28 03:53:12;;;;;;;8.95;8.20;;;4.50;99.90;;;;;;485278;244;27545;-71
2022/04/28 03:55:13;;;;;;;7.90;7.40;;;4.60;99.90;;;;;;485266;245;27549;-70
2022/04/28 03:57:14;;;;;;;8.40;7.90;;;4.60;99.90;;;;;;485268;245;28159;-69
2022/04/28 03:59:16;;;;;;;7.75;7.25;;;4.60;99.90;;;;;;485311;245;27938;-70
2022/04/28 04:01:17;;;;;;;8.23;7.75;;;4.60;99.90;;;;;;485313;245;28032;-69
2022/04/28 04:03:19;;;;;;;9.95;9.35;;;4.50;99.90;;;;;;485288;245;28091;-70
2022/04/28 04:05:19;;;;;;;8.90;8.40;;;4.50;99.90;;;;;;485257;245;27506;-69
2022/04/28 04:07:21;;;;;;;8.20;7.70;;;4.40;99.90;;;;;;485268;245;27535;-70
2022/04/28 04:09:22;;;;;;;8.55;8.00;;;4.40;99.90;;;;;;485286;245;27596;-69
2022/04/28 04:11:23;;;;;;;9.50;9.00;;;4.40;99.90;;;;;;485245;245;27513;-69
2022/04/28 04:13:24;;;;;;;9.95;9.40;;;4.40;99.90;;;;;;485264;245;27617;-69
2022/04/28 04:15:26;;;;;;;8.25;7.75;;;4.40;99.90;;;;;;485286;245;27501;-70
2022/04/28 04:17:27;;;;;;;10.05;9.55;;;4.40;99.90;;;;;;485294;245;27540;-69
2022/04/28 04:19:28;;;;;;;10.13;9.52;;;4.40;99.90;;;;;;485282;245;27636;-70
2022/04/28 04:21:29;;;;;;;8.90;8.40;;;4.30;99.90;;;;;;485278;245;27500;-69
2022/04/28 04:23:31;;;;;;;9.65;9.15;;;4.30;99.90;;;;;;485289;245;27626;-69
2022/04/28 04:25:32;;;;;;;11.20;10.50;;;4.30;99.90;;;;;;485289;245;27520;-69
2022/04/28 04:27:33;;;;;;;10.00;9.40;;;4.20;99.90;;;;;;485277;244;28020;-70
2022/04/28 04:29:34;;;;;;;11.57;10.98;;;4.20;99.90;;;;;;485304;245;28035;-69
2022/04/28 04:33:55;;;;;;;10.13;9.52;;;4.30;99.90;;;;;;485299;245;28009;-70
2022/04/28 04:35:56;;;;;;;10.20;9.60;;;4.30;99.90;;;;;;485307;245;28133;-70
2022/04/28 04:37:58;;;;;;;9.32;8.75;;;4.30;99.90;;;;;;485294;245;27529;-70
2022/04/28 04:39:59;;;;;;;7.37;6.97;;;4.30;99.90;;;;;;485313;245;27445;-72
2022/04/28 04:42:00;;;;;;;10.00;9.38;;;4.30;99.90;;;;;;485332;245;27474;-69
2022/04/28 04:44:02;;;;;;;8.50;8.10;;;4.30;99.90;;;;;;485318;245;27543;-70
2022/04/28 04:46:03;;;;;;;10.48;9.88;;;4.30;99.90;;;;;;485302;245;27422;-69
2022/04/28 04:48:04;;;;;;;10.45;9.75;;;4.30;99.90;;;;;;485268;245;27584;-69
2022/04/28 04:50:05;;;;;;;9.50;9.00;;;4.30;99.90;;;;;;485304;245;27922;-73
2022/04/28 04:52:06;;;;;;;10.10;9.50;;;4.30;99.90;;;;;;485349;245;27836;-69
2022/04/28 04:54:08;;;;;;;10.10;9.40;;;4.30;99.90;;;;;;485307;245;27976;-71
2022/04/28 04:56:09;;;;;;;10.02;9.43;;;4.30;99.90;;;;;;485318;245;27576;-69
2022/04/28 04:58:10;;;;;;;11.20;10.60;;;4.40;99.90;;;;;;485287;245;27530;-69
2022/04/28 05:00:11;;;;;;;8.55;8.05;;;4.40;99.90;;;;;;485318;244;27448;-70
2022/04/28 05:02:13;;;;;;;8.80;8.30;;;4.40;99.90;;;;;;485327;245;27418;-69
2022/04/28 05:04:14;;;;;;;9.48;8.90;;;4.40;99.90;;;;;;485327;245;27557;-71
2022/04/28 05:06:15;;;;;;;9.15;8.65;;;4.50;99.90;;;;;;485302;245;27486;-69
2022/04/28 05:08:17;;;;;;;8.32;7.78;;;4.50;99.90;;;;;;485262;245;27536;-70
2022/04/28 05:10:18;;;;;;;10.18;9.57;;;4.60;99.90;;;;;;485304;245;28561;-69
2022/04/28 05:12:19;;;;;;;10.68;10.07;;;4.60;99.90;;;;;;485264;244;28049;-70
2022/04/28 05:14:20;;;;;;;9.93;9.23;;;4.60;99.90;;;;;;485313;244;27621;-71
2022/04/28 05:16:21;;;;;;;10.40;9.80;;;4.70;99.90;;;;;;485297;245;27475;-70
2022/04/28 05:18:23;;;;;;;9.95;9.35;;;4.70;99.90;;;;;;485088;245;27545;-69
2022/04/28 05:20:24;;;;;;;12.27;11.55;;;4.70;99.90;;;;;;484644;245;27537;-70
2022/04/28 05:22:25;;;;;;;9.02;8.52;;;4.70;99.90;;;;;;485138;244;27481;-70
2022/04/28 05:24:27;;;;;;;9.38;8.70;;;4.70;99.90;;;;;;485076;245;27647;-70
2022/04/28 05:26:28;;;;;;;10.27;9.68;;;4.80;99.90;;;;;;485175;245;27576;-68
2022/04/28 05:28:29;;;;;;;11.10;10.50;;;4.80;99.90;;;;;;485265;245;27529;-69
2022/04/28 05:30:30;;;;;;;10.68;10.07;;;4.80;99.90;;;;;;485321;244;29105;-72
2022/04/28 05:32:32;;;;;;;11.50;10.80;;;4.90;99.90;;;;;;485314;244;27398;-69
2022/04/28 05:34:33;;;;;;;10.32;9.73;;;4.90;99.90;;;;;;485318;244;27520;-70
2022/04/28 05:36:34;;;;;;;11.45;10.85;;;5.00;99.90;;;;;;485305;245;27552;-69
2022/04/28 05:38:35;;;;;;;12.55;11.85;;;5.00;99.90;;;;;;485294;244;27536;-69
2022/04/28 05:40:37;;;;;;;13.20;12.50;;;5.10;99.90;;;;;;485313;244;28018;-72
2022/04/28 05:47:17;;;;;;;16.27;15.38;;;5.50;99.90;;;;;;485289;245;27544;-72
2022/04/28 05:49:18;;;;;;;15.27;14.43;;;5.50;99.90;;;;;;485299;244;28002;-69
2022/04/28 05:51:19;;;;;;;14.98;14.18;;;5.50;99.90;;;;;;485307;244;28060;-70
2022/04/28 05:53:21;;;;;;;13.90;13.10;;;5.50;99.90;;;;;;485329;244;27542;-69
2022/04/28 05:55:22;;;;;;;14.77;13.98;;;5.50;99.90;;;;;;485313;244;27511;-69
2022/04/28 05:57:23;;;;;;;15.05;14.15;;;5.60;99.90;;;;;;485315;244;27526;-71
2022/04/28 05:59:25;;;;;;;14.63;13.73;;;5.60;99.90;;;;;;485310;244;27613;-69
2022/04/28 06:01:26;;;;;;;13.65;12.85;;;5.70;99.90;;;;;;485312;244;28095;-70
2022/04/28 06:03:27;;;;;;;13.48;12.77;;;5.70;99.90;;;;;;485343;244;27613;-71
2022/04/28 06:05:28;;;;;;;12.95;12.25;;;5.80;99.90;;;;;;485299;244;27502;-69
2022/04/28 06:07:30;;;;;;;14.27;13.48;;;5.90;99.90;;;;;;485287;244;27545;-70
2022/04/28 06:09:31;;;;;;;14.48;13.68;;;6.00;99.90;;;;;;485316;244;27498;-71
2022/04/28 06:11:32;;;;;;;12.10;11.40;;;6.10;99.90;;;;;;485185;244;27988;-70
2022/04/28 06:13:33;;;;;;;10.25;9.65;;;6.20;99.90;;;;;;485331;244;27963;-69
2022/04/28 06:15:35;;;;;;;10.45;9.85;;;6.40;99.90;;;;;;485199;245;27533;-69
2022/04/28 06:17:36;;;;;;;9.73;9.23;;;6.40;99.90;;;;;;485317;245;27442;-72
2022/04/28 06:19:37;;;;;;;10.68;10.07;;;6.50;99.90;;;;;;485335;245;27494;-70
2022/04/28 06:21:38;;;;;;;10.30;9.60;;;6.60;99.90;;;;;;485304;244;27548;-68
2022/04/28 06:23:40;;;;;;;11.32;10.68;;;6.60;99.90;;;;;;485312;245;28785;-69
2022/04/28 06:25:41;;;;;;;10.70;10.10;;;6.70;99.90;;;;;;485333;244;27949;-69
2022/04/28 06:27:42;;;;;;;10.98;10.38;;;6.80;99.90;;;;;;485315;244;27626;-69
2022/04/28 06:29:44;;;;;;;11.25;10.65;;;7.00;99.90;;;;;;485340;244;27477;-68
2022/04/28 06:31:45;;;;;;;11.45;10.65;;;7.30;99.90;;;;;;485350;244;27522;-69
2022/04/28 06:33:47;;;;;;;12.00;11.20;;;7.80;99.90;;;;;;485325;244;28785;-69
2022/04/28 06:35:47;;;;;;;14.45;13.45;;;8.40;99.90;;;;;;485022;244;27557;-69
2022/04/28 06:37:48;;;;;;;13.73;12.93;;;8.80;99.90;;;;;;485346;244;27521;-70
2022/04/28 06:39:50;;;;;;;13.90;13.10;;;9.20;99.90;;;;;;485359;244;27656;-71
2022/04/28 06:41:51;;;;;;;11.07;10.33;;;9.50;99.90;;;;;;485339;244;28887;-71
2022/04/28 06:43:52;;;;;;;11.10;10.40;;;9.70;99.90;;;;;;485361;244;28532;-75
2022/04/28 06:48:13;;;;;;;13.33;12.23;;;10.20;99.90;;;;;;485333;245;28004;-71
2022/04/28 06:50:14;;;;;;;14.10;13.10;;;10.40;99.90;;;;;;485296;244;27707;-70
2022/04/28 06:52:15;;;;;;;13.00;12.10;;;10.50;99.90;;;;;;485320;244;27870;-71
2022/04/28 06:54:17;;;;;;;13.60;12.70;;;10.50;99.90;;;;;;485368;244;28128;-72
2022/04/28 06:56:18;;;;;;;14.13;13.07;;;10.60;99.90;;;;;;485353;244;27966;-71
2022/04/28 06:58:21;;;;;;;13.80;12.93;;;10.60;99.90;;;;;;485342;244;27629;-73
2022/04/28 07:00:20;;;;;;;11.37;10.63;;;10.70;99.90;;;;;;485269;244;27989;-71
2022/04/28 07:02:22;;;;;;;14.00;13.10;;;10.80;99.90;;;;;;485350;244;28005;-71
2022/04/28 07:04:23;;;;;;;14.20;13.30;;;10.80;99.90;;;;;;485379;244;28482;-74
2022/04/28 07:06:24;;;;;;;14.77;13.77;;;11.00;99.90;;;;;;485307;244;28142;-71
2022/04/28 07:08:25;;;;;;;13.90;13.00;;;11.00;99.90;;;;;;485310;244;28465;-71
2022/04/28 07:10:27;;;;;;;14.40;13.37;;;11.10;99.90;;;;;;485273;244;28317;-71
2022/04/28 07:12:28;;;;;;;14.50;13.50;;;11.20;99.90;;;;;;485298;244;28211;-71
2022/04/28 07:14:29;;;;;;;14.50;13.60;;;11.20;99.90;;;;;;485330;244;27895;-73
2022/04/28 07:16:31;;;;;;;14.77;13.67;;;11.30;99.90;;;;;;485320;244;28057;-71
2022/04/28 07:18:32;;;;;;;13.87;12.97;;;11.40;99.90;;;;;;485231;244;27743;-72
2022/04/28 07:20:33;;;;;;;11.63;10.80;;;11.30;99.90;;;;;;485376;244;27914;-72
2022/04/28 07:22:34;;;;;;;10.07;9.33;;;11.20;99.90;;;;;;485318;244;28464;-72
2022/04/28 07:24:36;;;;;;;10.23;9.53;;;11.20;99.90;;;;;;485330;245;28461;-71
2022/04/28 07:26:37;;;;;;;13.33;12.43;;;11.60;99.90;;;;;;485327;245;28447;-71
2022/04/28 07:28:38;;;;;;;14.53;13.53;;;11.70;99.90;;;;;;485302;244;28095;-72
2022/04/28 07:30:39;;;;;;;13.80;12.90;;;11.80;99.90;;;;;;485323;244;28057;-71
2022/04/28 07:32:41;;;;;;;12.00;11.00;;;11.80;99.90;;;;;;485337;244;27961;-71
2022/04/28 07:34:42;;;;;;;10.83;9.97;;;11.90;99.90;;;;;;485320;244;27842;-72
2022/04/28 07:36:43;;;;;;;10.93;10.10;;;11.90;99.90;;;;;;485311;245;28102;-71
2022/04/28 07:38:44;;;;;;;9.77;9.03;;;12.00;99.90;;;;;;485324;244;28451;-71
2022/04/28 07:40:46;;;;;;;12.07;11.17;;;11.80;99.90;;;;;;485324;245;28834;-71
2022/04/28 07:42:47;;;;;;;10.50;9.80;;;11.90;99.90;;;;;;485314;244;28073;-71
2022/04/28 07:44:48;;;;;;;10.97;10.27;;;12.00;99.90;;;;;;485314;245;28326;-73
2022/04/28 07:46:49;;;;;;;10.13;9.33;;;12.20;99.90;;;;;;485317;244;28062;-71
2022/04/28 07:48:51;;;;;;;11.10;10.20;;;12.10;99.90;;;;;;485303;245;28251;-71
2022/04/28 07:50:52;;;;;;;11.57;10.70;;;12.30;99.90;;;;;;485293;244;28101;-71
2022/04/28 07:52:53;;;;;;;12.37;11.40;;;12.40;99.90;;;;;;485318;244;28205;-72
2022/04/28 07:54:54;;;;;;;11.10;10.30;;;12.40;99.90;;;;;;485323;244;28903;-72
2022/04/28 07:56:56;;;;;;;10.77;10.07;;;12.40;99.90;;;;;;485318;244;28548;-72
2022/04/28 07:58:57;;;;;;;11.93;10.93;;;12.40;99.90;;;;;;485327;244;28239;-71
2022/04/28 08:00:59;;;;;;;11.70;10.90;;;12.40;99.90;;;;;;485320;244;28243;-72
2022/04/28 08:02:59;;;;;;;11.13;10.43;;;12.60;99.90;;;;;;485349;244;28089;-72
2022/04/28 08:05:01;;;;;;;12.07;11.27;;;12.60;99.90;;;;;;485349;244;28338;-72
2022/04/28 08:07:02;;;;;;;13.17;12.33;;;12.60;99.90;;;;;;485395;244;28291;-71
2022/04/28 08:09:03;;;;;;;11.10;10.27;;;12.70;99.90;;;;;;485346;244;28963;-71
2022/04/28 08:11:04;;;;;;;9.90;9.30;;;12.80;99.90;;;;;;485382;244;28586;-72
2022/04/28 08:13:06;;;;;;;10.67;9.97;;;12.80;99.90;;;;;;485341;245;28073;-71
2022/04/28 08:15:07;;;;;;;11.10;10.50;;;12.70;99.90;;;;;;485353;245;28365;-71
2022/04/28 08:17:08;;;;;;;11.97;11.17;;;12.60;99.90;;;;;;485348;244;28593;-72
2022/04/28 08:19:09;;;;;;;12.20;11.30;;;12.80;99.90;;;;;;485327;244;28371;-71
2022/04/28 08:21:11;;;;;;;9.73;9.03;;;13.00;99.90;;;;;;485365;244;28288;-73
2022/04/28 08:23:12;;;;;;;10.67;9.97;;;13.00;99.90;;;;;;485371;245;28439;-72
2022/04/28 08:25:13;;;;;;;11.03;10.23;;;13.00;99.90;;;;;;485372;245;28894;-75
2022/04/28 08:27:15;;;;;;;10.80;10.13;;;13.20;99.90;;;;;;485429;244;28901;-72
2022/04/28 08:29:16;;;;;;;11.93;10.90;;;13.20;99.90;;;;;;485366;244;28335;-72
2022/04/28 08:31:17;;;;;;;11.90;11.20;;;13.20;99.90;;;;;;485401;244;28527;-75
2022/04/28 08:33:18;;;;;;;11.67;10.97;;;13.40;99.90;;;;;;485394;244;28058;-71
2022/04/28 08:35:20;;;;;;;12.13;11.17;;;13.40;99.90;;;;;;485353;244;28402;-72
2022/04/28 08:37:21;;;;;;;11.07;10.37;;;13.40;99.90;;;;;;485375;244;28530;-71
2022/04/28 08:39:22;;;;;;;11.60;10.80;;;13.40;99.90;;;;;;485336;244;28917;-72
2022/04/28 08:41:23;;;;;;;9.50;9.00;;;13.40;99.90;;;;;;485318;244;29136;-75
2022/04/28 08:43:25;;;;;;;9.60;9.00;;;13.30;99.90;;;;;;485348;245;29016;-71
2022/04/28 08:45:26;;;;;;;9.70;9.00;;;13.40;99.90;;;;;;485334;245;28298;-72
2022/04/28 08:47:27;;;;;;;12.10;11.30;;;13.60;99.90;;;;;;485318;245;28219;-72
2022/04/28 08:49:28;;;;;;;11.53;10.63;;;13.60;99.90;;;;;;485318;244;28903;-72
2022/04/28 08:51:30;;;;;;;11.50;10.83;;;13.70;99.90;;;;;;485340;244;28502;-73
2022/04/28 08:53:31;;;;;;;11.67;10.87;;;13.80;99.90;;;;;;485294;245;28644;-72
2022/04/28 08:55:32;;;;;;;4.47;4.07;;;13.70;99.90;;;;;;485328;244;28560;-71
2022/04/28 08:57:34;;;;;;;4.10;3.53;;;13.80;99.90;;;;;;485326;245;29785;-71
2022/04/28 08:59:35;;;;;;;4.73;4.33;;;13.80;99.90;;;;;;485358;245;28708;-71
2022/04/28 09:01:37;;;;;;;4.70;4.20;;;;;;;;;;485347;245;28926;-71
2022/04/28 09:03:38;;;;;;;5.23;4.73;;;13.90;99.90;;;;;;485337;242;27102;-73
2022/04/28 09:05:40;;;;;;;4.87;4.47;;;13.90;99.90;;;;;;485335;245;28566;-71
2022/04/28 09:07:42;;;;;;;7.00;4.47;;;14.10;99.90;;;;;;485343;245;28081;-72
2022/04/28 09:09:42;;;;;;;4.73;4.33;;;14.30;99.90;;;;;;485261;245;28158;-72
2022/04/28 09:11:43;;;;;;;4.73;4.33;;;14.20;99.90;;;;;;485347;245;28423;-71
2022/04/28 09:16:04;;;;;;;3.93;3.63;;;13.90;99.90;;;;;;485339;245;28272;-75
2022/04/28 09:18:07;;;;;;;3.87;3.47;;;;;;;;;;485327;245;28838;-72
2022/04/28 09:20:09;;;;;;;3.63;3.33;;;13.90;99.90;;;;;;485297;245;26612;-72
2022/04/28 09:22:09;;;;;;;4.57;3.63;;;13.90;99.90;;;;;;485246;245;28881;-71
2022/04/28 09:24:10;;;;;;;4.50;4.10;;;14.20;99.90;;;;;;485354;245;28453;-73
2022/04/28 09:26:11;;;;;;;4.87;3.97;;;14.60;99.90;;;;;;485367;245;28265;-71
2022/04/28 09:28:13;;;;;;;4.47;3.50;;;14.70;99.90;;;;;;482795;245;36610;-72
2022/04/28 09:30:14;;;;;;;3.60;3.30;;;14.70;99.90;;;;;;485316;245;29283;-72
2022/04/28 09:32:18;;;;;;;4.47;4.17;;;14.30;99.90;;;;;;485298;245;28924;-72
2022/04/28 09:34:16;;;;;;;3.47;3.27;;;14.50;99.90;;;;;;485131;245;28926;-73
2022/04/28 09:36:18;;;;;;;3.83;3.43;;;14.50;99.90;;;;;;485317;245;28271;-71
2022/04/28 09:38:19;;;;;;;4.03;3.73;;;14.70;99.90;;;;;;485341;245;28312;-72
2022/04/28 09:42:40;;;;;;;4.10;3.73;;;14.70;99.90;;;;;;485329;244;28206;-71
2022/04/28 09:44:41;;;;;;;4.10;3.70;;;14.70;99.90;;;;;;485315;245;28455;-72
2022/04/28 09:46:43;;;;;;;3.67;3.37;;;14.80;99.90;;;;;;485310;245;28197;-71
2022/04/28 09:48:44;;;;;;;3.60;3.30;;;14.70;99.90;;;;;;485296;242;28486;-71
2022/04/28 09:50:45;;;;;;;3.90;3.33;;;14.80;99.90;;;;;;485368;245;28256;-71
2022/04/28 09:52:46;;;;;;;4.90;3.43;;;14.90;99.90;;;;;;485346;245;28972;-72
2022/04/28 09:54:49;;;;;;;4.30;3.60;;;;;;;;;;485322;245;29010;-71
2022/04/28 09:56:50;;;;;;;4.00;3.30;;;15.00;99.90;;;;;;485305;245;26533;-72
2022/04/28 09:58:51;;;;;;;3.80;3.43;;;14.90;99.90;;;;;;485347;245;28473;-74
2022/04/28 10:00:52;;;;;;;3.73;3.43;;;15.10;99.90;;;;;;485337;245;28705;-71
2022/04/28 10:02:54;;;;;;;4.17;3.77;;;15.10;99.90;;;;;;485317;245;28458;-73
2022/04/28 10:04:55;;;;;;;3.80;3.50;;;15.20;99.90;;;;;;485312;245;29089;-72
2022/04/28 10:06:58;;;;;;;3.30;3.10;;;15.20;99.90;;;;;;485292;245;29117;-72
2022/04/28 10:08:57;;;;;;;4.10;3.40;;;15.10;99.90;;;;;;485266;245;29164;-72
2022/04/28 10:10:59;;;;;;;3.10;2.90;;;15.20;98.40;;;;;;485342;245;28945;-71
2022/04/28 10:13:00;;;;;;;4.17;3.40;;;15.20;99.00;;;;;;485215;242;28578;-72
2022/04/28 10:15:01;;;;;;;3.50;3.20;;;15.20;99.60;;;;;;485311;245;28834;-71
2022/04/28 10:17:02;;;;;;;3.73;2.87;;;15.20;98.10;;;;;;485292;245;28851;-72
2022/04/28 10:19:04;;;;;;;3.57;3.27;;;15.10;98.60;;;;;;485351;245;28453;-72
2022/04/28 10:21:05;;;;;;;2.97;2.77;;;15.30;97.80;;;;;;485332;245;28496;-72
2022/04/28 10:23:06;;;;;;;3.10;2.90;;;15.20;97.60;;;;;;485307;241;28570;-72
2022/04/28 10:32:24;;;;;;;3.20;2.90;;;15.70;98.60;;;;;;485312;245;28369;-72
2022/04/28 10:34:25;;;;;;;3.93;3.03;;;15.40;97.70;;;;;;485335;245;28587;-71
2022/04/28 10:36:27;;;;;;;3.97;3.60;;;15.50;99.00;;;;;;485282;245;28560;-72
2022/04/28 10:38:31;;;;;;;3.30;3.00;;;15.50;97.90;;;;;;485338;245;28870;-73
2022/04/28 10:40:32;;;;;;;5.23;4.07;;;15.40;99.00;;;;;;485319;245;29014;-73
2022/04/28 10:42:33;;;;;;;4.40;4.00;;;15.50;97.50;;;;;;485336;245;28879;-71
2022/04/28 10:44:35;;;;;;;5.43;3.90;;;15.60;97.60;;;;;;485324;245;29416;-72
2022/04/28 10:46:36;;;;;;;3.70;3.40;;;15.60;96.40;;;;;;485305;245;29342;-72
2022/04/28 10:48:38;;;;;;;3.70;3.10;;;15.80;97.30;;;;;;485313;245;29409;-72
2022/04/28 10:50:38;;;;;;;3.53;3.23;;;15.70;95.70;;;;;;485276;245;28901;-74
2022/04/28 10:52:39;;;;;;;2.87;2.53;;;15.60;95.60;;;;;;485337;245;28923;-71
2022/04/28 10:54:41;;;;;;;3.20;2.97;;;15.70;96.90;;;;;;485296;245;28857;-73
2022/04/28 10:56:42;;;;;;;2.80;2.50;;;15.60;98.20;;;;;;485339;245;28833;-71
2022/04/28 10:58:43;;;;;;;3.57;3.27;;;15.70;97.90;;;;;;485335;245;28885;-71
2022/04/28 11:00:44;;;;;;;3.00;2.60;;;15.70;98.40;;;;;;485286;245;28891;-72
2022/04/28 11:02:46;;;;;;;2.50;2.40;;;15.60;98.70;;;;;;485330;245;28990;-72
2022/04/28 11:04:47;;;;;;;3.13;2.93;;;15.50;98.80;;;;;;485322;245;28952;-72